createdAt,value
2019-05-10T00:01:41.110Z,99.90
2019-05-10T00:04:28.103Z,99.90
2019-05-10T00:07:14.999Z,99.90
2019-05-10T00:09:43.076Z,99.90
2019-05-10T00:12:18.983Z,99.90
2019-05-10T00:14:49.247Z,99.90
2019-05-10T00:17:19.239Z,99.90
2019-05-10T00:19:47.932Z,99.90
2019-05-10T00:22:16.639Z,99.90
2019-05-10T00:25:00.750Z,99.90
2019-05-10T00:27:17.045Z,99.90
2019-05-10T00:29:45.715Z,99.90
2019-05-10T00:32:14.490Z,99.90
2019-05-10T00:34:43.063Z,99.90
2019-05-10T00:37:11.717Z,99.90
2019-05-10T00:39:40.343Z,99.90
2019-05-10T00:42:08.977Z,99.90
2019-05-10T00:44:37.597Z,99.90
2019-05-10T00:47:06.246Z,99.90
2019-05-10T00:49:34.846Z,99.90
2019-05-10T00:52:03.634Z,99.90
2019-05-10T00:54:32.323Z,99.90
2019-05-10T00:57:01.023Z,99.90
2019-05-10T00:59:29.717Z,99.90
2019-05-10T01:01:58.435Z,99.90
2019-05-10T01:04:27.046Z,99.90
2019-05-10T01:06:56.520Z,99.90
2019-05-10T01:09:25.336Z,99.90
2019-05-10T01:11:54.060Z,99.90
2019-05-10T01:14:22.671Z,99.90
2019-05-10T01:16:51.308Z,99.90
2019-05-10T01:19:19.915Z,99.90
2019-05-10T01:21:52.087Z,99.90
2019-05-10T01:24:20.773Z,99.90
2019-05-10T01:26:49.430Z,99.90
2019-05-10T01:29:18.051Z,99.90
2019-05-10T01:31:46.720Z,99.90
2019-05-10T01:34:15.322Z,99.90
2019-05-10T01:36:43.979Z,99.90
2019-05-10T01:39:12.573Z,99.90
2019-05-10T01:41:41.202Z,99.90
2019-05-10T01:44:09.814Z,99.90
2019-05-10T01:46:38.446Z,99.90
2019-05-10T01:49:07.047Z,99.90
2019-05-10T01:51:35.686Z,99.90
2019-05-10T01:54:04.382Z,99.90
2019-05-10T01:56:33.033Z,99.90
2019-05-10T01:59:01.649Z,99.90
2019-05-10T02:01:30.270Z,99.90
2019-05-10T02:03:58.901Z,99.90
2019-05-10T02:06:27.601Z,99.90
2019-05-10T02:08:56.381Z,99.90
2019-05-10T02:11:24.986Z,99.90
2019-05-10T02:13:53.612Z,99.90
2019-05-10T02:16:22.202Z,99.90
2019-05-10T02:18:50.853Z,99.90
2019-05-10T02:21:19.467Z,99.90
2019-05-10T02:23:49.177Z,99.90
2019-05-10T02:26:17.781Z,99.90
2019-05-10T02:28:46.447Z,99.90
2019-05-10T02:31:15.073Z,99.90
2019-05-10T02:33:43.687Z,99.90
2019-05-10T02:36:12.290Z,99.90
2019-05-10T02:38:40.928Z,99.90
2019-05-10T02:41:09.546Z,99.90
2019-05-10T02:43:38.186Z,99.90
2019-05-10T02:46:06.794Z,99.90
2019-05-10T02:48:35.431Z,99.90
2019-05-10T02:51:04.058Z,99.90
2019-05-10T02:53:32.779Z,99.90
2019-05-10T02:56:02.473Z,99.90
2019-05-10T02:58:32.593Z,99.90
2019-05-10T03:01:01.262Z,99.90
2019-05-10T03:03:31.758Z,99.90
2019-05-10T03:06:01.914Z,99.90
2019-05-10T03:08:34.982Z,99.90
2019-05-10T03:11:03.603Z,99.90
2019-05-10T03:13:32.428Z,99.90
2019-05-10T03:16:04.030Z,99.90
2019-05-10T03:18:32.898Z,99.90
2019-05-10T03:21:01.831Z,99.90
2019-05-10T03:23:30.567Z,99.90
2019-05-10T03:25:59.243Z,99.90
2019-05-10T03:28:27.955Z,99.90
2019-05-10T03:30:56.646Z,99.90
2019-05-10T03:33:25.384Z,99.90
2019-05-10T03:35:54.047Z,99.90
2019-05-10T03:38:22.771Z,99.90
2019-05-10T03:40:51.736Z,99.90
2019-05-10T03:43:20.458Z,99.90
2019-05-10T03:45:49.074Z,99.90
2019-05-10T03:48:17.782Z,99.90
2019-05-10T03:50:46.490Z,99.90
2019-05-10T03:53:15.099Z,99.90
2019-05-10T03:55:43.733Z,99.90
2019-05-10T03:58:12.355Z,99.90
2019-05-10T04:00:40.987Z,99.90
2019-05-10T04:03:09.767Z,99.90
2019-05-10T04:05:38.403Z,99.90
2019-05-10T04:08:07.097Z,99.90
2019-05-10T04:10:35.750Z,99.90
2019-05-10T04:13:04.741Z,99.90
2019-05-10T04:15:33.395Z,99.90
2019-05-10T04:18:02.016Z,99.90
2019-05-10T04:20:30.691Z,99.90
2019-05-10T04:22:59.280Z,99.90
2019-05-10T04:25:27.971Z,99.90
2019-05-10T04:27:56.602Z,99.90
2019-05-10T04:30:25.331Z,99.90
2019-05-10T04:32:53.939Z,99.90
2019-05-10T04:35:22.599Z,99.90
2019-05-10T04:37:51.211Z,99.90
2019-05-10T04:40:28.143Z,99.90
2019-05-10T04:42:56.781Z,99.90
2019-05-10T04:45:25.414Z,99.90
2019-05-10T04:47:54.038Z,99.90
2019-05-10T04:50:22.687Z,99.90
2019-05-10T04:52:51.320Z,99.90
2019-05-10T04:55:19.953Z,99.90
2019-05-10T04:57:51.075Z,99.90
2019-05-10T05:00:18.883Z,99.90
2019-05-10T05:02:47.601Z,99.90
2019-05-10T05:05:16.286Z,99.90
2019-05-10T05:07:44.873Z,99.90
2019-05-10T05:10:13.578Z,99.90
2019-05-10T05:12:42.235Z,99.90
2019-05-10T05:15:11.518Z,99.90
2019-05-10T05:17:40.186Z,99.90
2019-05-10T05:20:08.869Z,99.90
2019-05-10T05:22:37.510Z,99.90
2019-05-10T05:25:06.912Z,99.90
2019-05-10T05:27:35.531Z,99.90
2019-05-10T05:30:07.778Z,99.90
2019-05-10T05:32:38.680Z,99.90
2019-05-10T05:35:06.726Z,99.90
2019-05-10T05:37:35.369Z,99.90
2019-05-10T05:40:05.830Z,99.90
2019-05-10T05:42:34.481Z,99.90
2019-05-10T05:45:04.378Z,99.90
2019-05-10T05:47:37.704Z,99.90
2019-05-10T05:50:05.021Z,99.90
2019-05-10T05:52:33.834Z,99.90
2019-05-10T05:55:02.470Z,99.90
2019-05-10T05:57:31.129Z,99.90
2019-05-10T06:00:04.252Z,99.50
2019-05-10T06:02:30.187Z,99.90
2019-05-10T06:04:58.816Z,99.90
2019-05-10T06:07:31.259Z,99.50
2019-05-10T06:09:57.702Z,99.80
2019-05-10T06:12:26.338Z,99.90
2019-05-10T06:14:54.950Z,99.90
2019-05-10T06:17:28.829Z,99.90
2019-05-10T06:19:53.830Z,99.70
2019-05-10T06:22:22.465Z,99.30
2019-05-10T06:24:52.365Z,99.80
2019-05-10T06:27:21.334Z,98.20
2019-05-10T06:29:49.947Z,97.30
2019-05-10T06:32:18.682Z,96.70
2019-05-10T06:34:47.311Z,96.10
2019-05-10T06:37:15.938Z,97.40
2019-05-10T06:39:44.581Z,97.40
2019-05-10T06:42:13.210Z,96.40
2019-05-10T06:44:42.103Z,98.40
2019-05-10T06:47:11.401Z,96.00
2019-05-10T06:49:41.729Z,95.60
2019-05-10T06:52:10.288Z,95.10
2019-05-10T06:54:38.910Z,94.90
2019-05-10T06:57:11.234Z,94.80
2019-05-10T06:59:38.865Z,94.80
2019-05-10T07:02:07.509Z,93.90
2019-05-10T07:04:40.730Z,93.50
2019-05-10T07:07:10.260Z,93.80
2019-05-10T07:10:01.671Z,94.10
2019-05-10T07:12:09.298Z,93.50
2019-05-10T07:14:45.080Z,91.90
2019-05-10T07:17:08.427Z,93.40
2019-05-10T07:19:42.055Z,93.10
2019-05-10T07:22:07.458Z,92.10
2019-05-10T07:24:36.067Z,91.50
2019-05-10T07:27:05.842Z,90.90
2019-05-10T07:29:42.064Z,90.70
2019-05-10T07:32:05.170Z,89.60
2019-05-10T07:34:33.814Z,91.40
2019-05-10T07:37:02.539Z,90.90
2019-05-10T07:39:31.190Z,90.70
2019-05-10T07:42:00.406Z,92.80
2019-05-10T07:44:30.047Z,91.20
2019-05-10T07:46:58.738Z,91.10
2019-05-10T07:49:30.407Z,89.20
2019-05-10T07:52:02.114Z,89.70
2019-05-10T07:54:27.926Z,89.00
2019-05-10T07:56:56.538Z,87.20
2019-05-10T07:59:29.083Z,88.60
2019-05-10T08:01:55.431Z,87.30
2019-05-10T08:04:31.436Z,87.90
2019-05-10T08:06:54.371Z,87.00
2019-05-10T08:09:23.077Z,85.30
2019-05-10T08:12:00.631Z,85.20
2019-05-10T08:14:29.003Z,87.40
2019-05-10T08:17:01.756Z,86.60
2019-05-10T08:19:32.773Z,86.20
2019-05-10T08:22:01.791Z,83.50
2019-05-10T08:24:28.440Z,84.40
2019-05-10T08:27:06.894Z,84.20
2019-05-10T08:29:27.378Z,83.60
2019-05-10T08:31:56.210Z,81.90
2019-05-10T08:34:28.965Z,79.70
2019-05-10T08:36:55.051Z,78.60
2019-05-10T08:39:23.698Z,78.70
2019-05-10T08:42:01.258Z,73.10
2019-05-10T08:44:24.034Z,73.20
2019-05-10T08:46:52.695Z,72.40
2019-05-10T08:49:25.661Z,73.90
2019-05-10T08:51:52.209Z,75.50
2019-05-10T08:54:22.138Z,77.10
2019-05-10T08:59:38.151Z,78.30
2019-05-10T09:02:06.795Z,75.00
2019-05-10T09:04:42.775Z,71.90
2019-05-10T09:07:05.699Z,69.50
2019-05-10T09:09:45.722Z,71.00
2019-05-10T09:12:09.071Z,68.00
2019-05-10T09:14:34.887Z,69.30
2019-05-10T09:17:04.457Z,69.90
2019-05-10T09:19:40.689Z,70.00
2019-05-10T09:22:03.675Z,70.40
2019-05-10T09:24:43.237Z,73.00
2019-05-10T09:27:07.228Z,74.10
2019-05-10T09:29:37.525Z,75.90
2019-05-10T09:32:06.826Z,77.80
2019-05-10T09:34:35.614Z,80.20
2019-05-10T09:37:08.013Z,82.70
2019-05-10T09:39:34.498Z,83.70
2019-05-10T09:42:08.342Z,82.60
2019-05-10T09:44:33.469Z,83.80
2019-05-10T09:47:04.060Z,83.20
2019-05-10T09:49:33.235Z,84.20
2019-05-10T09:52:04.593Z,84.10
2019-05-10T09:54:33.726Z,83.40
2019-05-10T09:57:03.558Z,85.50
2019-05-10T09:59:32.235Z,83.70
2019-05-10T10:02:05.098Z,83.80
2019-05-10T10:04:31.126Z,81.50
2019-05-10T10:06:59.791Z,81.40
2019-05-10T10:09:33.908Z,78.40
2019-05-10T10:12:02.862Z,77.50
2019-05-10T10:14:38.158Z,78.50
2019-05-10T10:17:02.922Z,74.80
2019-05-10T10:19:29.472Z,76.00
2019-05-10T10:21:58.158Z,77.30
2019-05-10T10:24:28.465Z,81.70
2019-05-10T10:26:58.110Z,72.20
2019-05-10T10:29:28.696Z,73.10
2019-05-10T10:31:59.006Z,67.80
2019-05-10T10:34:27.413Z,69.40
2019-05-10T10:36:58.078Z,71.40
2019-05-10T10:39:27.748Z,66.20
2019-05-10T10:41:57.144Z,67.90
2019-05-10T10:44:27.043Z,71.20
2019-05-10T10:46:58.047Z,71.10
2019-05-10T10:49:30.230Z,70.20
2019-05-10T10:51:57.369Z,72.10
2019-05-10T10:54:28.638Z,69.90
2019-05-10T10:56:59.365Z,69.50
2019-05-10T10:59:26.654Z,68.30
2019-05-10T11:02:25.354Z,66.00
2019-05-10T11:04:25.531Z,67.50
2019-05-10T11:07:09.283Z,68.10
2019-05-10T11:09:24.405Z,69.20
2019-05-10T11:11:53.069Z,69.40
2019-05-10T11:14:21.774Z,70.30
2019-05-10T11:16:52.921Z,64.50
2019-05-10T11:19:20.661Z,62.10
2019-05-10T11:21:51.233Z,62.30
2019-05-10T11:24:20.764Z,66.40
2019-05-10T11:26:51.704Z,64.60
2019-05-10T11:29:27.637Z,65.40
2019-05-10T11:32:11.144Z,65.10
2019-05-10T11:34:21.625Z,67.00
2019-05-10T11:36:51.223Z,63.40
2019-05-10T11:39:26.187Z,64.20
2019-05-10T11:41:52.933Z,65.50
2019-05-10T11:44:22.099Z,68.00
2019-05-10T11:46:50.933Z,66.90
2019-05-10T11:49:20.598Z,68.40
2019-05-10T11:51:55.011Z,69.00
2019-05-10T11:54:21.540Z,69.00
2019-05-10T11:56:52.091Z,64.90
2019-05-10T11:59:21.799Z,62.90
2019-05-10T12:01:58.095Z,62.90
2019-05-10T12:04:30.364Z,63.40
2019-05-10T12:06:51.821Z,58.90
2019-05-10T12:09:24.189Z,55.80
2019-05-10T12:11:53.063Z,56.40
2019-05-10T12:14:21.883Z,56.00
2019-05-10T12:16:54.629Z,57.00
2019-05-10T12:19:21.542Z,57.00
2019-05-10T12:21:55.486Z,58.50
2019-05-10T12:24:38.768Z,56.70
2019-05-10T12:27:12.919Z,56.40
2019-05-10T12:29:21.384Z,55.00
2019-05-10T12:31:54.402Z,52.90
2019-05-10T12:34:20.829Z,55.40
2019-05-10T12:36:51.780Z,53.40
2019-05-10T12:39:21.416Z,55.50
2019-05-10T12:41:52.981Z,57.00
2019-05-10T12:44:20.316Z,58.00
2019-05-10T12:46:53.781Z,56.60
2019-05-10T12:49:21.326Z,56.30
2019-05-10T12:51:51.332Z,55.60
2019-05-10T12:54:23.693Z,58.40
2019-05-10T12:56:49.891Z,58.20
2019-05-10T12:59:18.518Z,60.90
2019-05-10T13:01:47.161Z,60.20
2019-05-10T13:04:16.990Z,59.90
2019-05-10T13:06:45.766Z,59.20
2019-05-10T13:09:14.479Z,55.80
2019-05-10T13:11:43.038Z,55.70
2019-05-10T13:14:11.683Z,54.30
2019-05-10T13:16:40.291Z,57.00
2019-05-10T13:19:14.141Z,55.00
2019-05-10T13:21:39.162Z,54.10
2019-05-10T13:24:07.795Z,55.50
2019-05-10T13:26:36.418Z,55.00
2019-05-10T13:29:08.251Z,56.70
2019-05-10T13:31:41.856Z,54.80
2019-05-10T13:34:05.635Z,56.90
2019-05-10T13:36:37.066Z,58.40
2019-05-10T13:39:05.549Z,59.00
2019-05-10T13:41:34.162Z,56.10
2019-05-10T13:44:04.967Z,56.60
2019-05-10T13:46:33.172Z,57.60
2019-05-10T13:49:01.832Z,60.50
2019-05-10T13:51:30.536Z,61.50
2019-05-10T13:54:00.874Z,60.70
2019-05-10T13:56:29.530Z,61.70
2019-05-10T13:58:58.225Z,64.00
2019-05-10T14:01:26.813Z,64.10
2019-05-10T14:04:01.083Z,63.30
2019-05-10T14:06:25.703Z,63.70
2019-05-10T14:08:54.346Z,62.10
2019-05-10T14:11:22.959Z,63.30
2019-05-10T14:13:51.758Z,63.40
2019-05-10T14:16:22.353Z,64.30
2019-05-10T14:18:50.706Z,64.10
2019-05-10T14:21:19.342Z,64.90
2019-05-10T14:23:49.022Z,64.50
2019-05-10T14:26:18.363Z,65.20
2019-05-10T14:28:52.553Z,66.50
2019-05-10T14:31:17.459Z,67.40
2019-05-10T14:33:49.543Z,68.80
2019-05-10T14:36:16.402Z,69.10
2019-05-10T14:38:47.423Z,70.80
2019-05-10T14:41:16.299Z,71.00
2019-05-10T14:43:44.973Z,70.60
2019-05-10T14:46:14.123Z,69.70
2019-05-10T14:48:42.834Z,68.90
2019-05-10T14:51:13.834Z,70.60
2019-05-10T14:53:41.750Z,69.50
2019-05-10T14:56:14.076Z,69.80
2019-05-10T14:58:40.711Z,70.60
2019-05-10T15:01:09.323Z,69.60
2019-05-10T15:03:45.315Z,70.60
2019-05-10T15:06:08.230Z,69.00
2019-05-10T15:08:36.864Z,69.50
2019-05-10T15:11:05.570Z,71.10
2019-05-10T15:13:43.360Z,71.30
2019-05-10T15:16:13.122Z,74.00
2019-05-10T15:18:42.371Z,70.90
2019-05-10T15:21:11.018Z,71.50
2019-05-10T15:23:39.670Z,71.80
2019-05-10T15:26:11.668Z,70.70
2019-05-10T15:28:40.184Z,72.50
2019-05-10T15:31:08.865Z,71.90
2019-05-10T15:33:37.462Z,72.40
2019-05-10T15:36:06.108Z,71.80
2019-05-10T15:38:40.491Z,71.80
2019-05-10T15:41:05.134Z,72.70
2019-05-10T15:43:33.825Z,72.60
2019-05-10T15:46:02.446Z,73.40
2019-05-10T15:48:36.519Z,74.80
2019-05-10T15:51:02.435Z,77.50
2019-05-10T15:53:31.100Z,78.30
2019-05-10T15:56:03.938Z,78.10
2019-05-10T15:58:36.140Z,78.70
2019-05-10T16:01:01.029Z,79.20
2019-05-10T16:03:29.629Z,79.70
2019-05-10T16:06:00.879Z,78.50
2019-05-10T16:08:30.420Z,78.40
2019-05-10T16:10:58.662Z,77.60
2019-05-10T16:13:27.308Z,77.90
2019-05-10T16:15:57.559Z,76.60
2019-05-10T16:18:26.124Z,77.10
2019-05-10T16:20:54.729Z,78.50
2019-05-10T16:23:23.313Z,78.80
2019-05-10T16:25:51.916Z,79.50
2019-05-10T16:28:22.959Z,79.90
2019-05-10T16:30:51.785Z,79.50
2019-05-10T16:33:20.368Z,78.70
2019-05-10T16:35:49.985Z,78.90
2019-05-10T16:38:18.765Z,79.60
2019-05-10T16:40:58.566Z,79.00
2019-05-10T16:43:24.491Z,78.00
2019-05-10T16:47:11.413Z,82.50
2019-05-10T16:49:40.856Z,78.00
2019-05-10T16:52:10.320Z,77.20
2019-05-10T16:54:39.770Z,78.40
2019-05-10T16:57:09.241Z,76.20
2019-05-10T16:59:38.685Z,76.00
2019-05-10T17:02:11.694Z,77.10
2019-05-10T17:04:39.770Z,75.40
2019-05-10T17:07:12.939Z,75.50
2019-05-10T17:09:39.577Z,72.70
2019-05-10T17:12:09.123Z,71.00
2019-05-10T17:14:38.569Z,72.30
2019-05-10T17:17:08.063Z,74.50
2019-05-10T17:19:37.512Z,74.80
2019-05-10T17:22:07.048Z,73.90
2019-05-10T17:24:36.497Z,72.30
2019-05-10T17:27:05.961Z,72.70
2019-05-10T17:29:35.417Z,72.20
2019-05-10T17:32:26.558Z,72.40
2019-05-10T17:34:59.320Z,70.80
2019-05-10T17:37:29.836Z,71.40
2019-05-10T17:39:59.429Z,71.70
2019-05-10T17:42:28.901Z,72.40
2019-05-10T17:45:02.025Z,75.00
2019-05-10T17:47:32.368Z,78.50
2019-05-10T17:50:00.585Z,76.20
2019-05-10T17:52:30.121Z,77.70
2019-05-10T17:54:59.602Z,76.50
2019-05-10T17:57:29.071Z,78.50
2019-05-10T17:59:58.512Z,79.30
2019-05-10T18:02:28.002Z,79.60
2019-05-10T18:04:59.785Z,78.90
2019-05-10T18:07:28.637Z,79.10
2019-05-10T18:09:58.077Z,80.00
2019-05-10T18:12:27.546Z,80.60
2019-05-10T18:14:57.681Z,80.70
2019-05-10T18:17:27.626Z,80.70
2019-05-10T18:20:02.399Z,81.10
2019-05-10T18:22:29.417Z,82.30
2019-05-10T18:24:58.861Z,83.00
2019-05-10T18:27:28.317Z,83.00
2019-05-10T18:29:57.795Z,83.40
2019-05-10T18:32:29.252Z,83.70
2019-05-10T18:34:58.326Z,83.30
2019-05-10T18:37:27.769Z,83.80
2019-05-10T18:39:57.245Z,84.10
2019-05-10T18:42:28.025Z,84.10
2019-05-10T18:44:57.657Z,84.80
2019-05-10T18:47:27.102Z,84.70
2019-05-10T18:49:56.574Z,84.50
2019-05-10T18:52:26.012Z,83.70
2019-05-10T18:54:55.496Z,83.10
2019-05-10T18:57:24.941Z,82.90
2019-05-10T19:00:00.216Z,82.80
2019-05-10T19:02:29.638Z,82.80
2019-05-10T19:04:59.127Z,82.90
2019-05-10T19:07:28.617Z,82.90
2019-05-10T19:09:58.173Z,83.10
2019-05-10T19:12:27.805Z,83.20
2019-05-10T19:15:02.431Z,83.10
2019-05-10T19:17:27.933Z,83.20
2019-05-10T19:19:57.405Z,83.40
2019-05-10T19:22:26.937Z,83.50
2019-05-10T19:24:57.172Z,83.70
2019-05-10T19:27:26.717Z,83.80
2019-05-10T19:29:56.303Z,83.80
2019-05-10T19:32:25.757Z,84.00
2019-05-10T19:34:57.908Z,84.00
2019-05-10T19:37:33.401Z,83.90
2019-05-10T19:40:05.377Z,83.90
2019-05-10T19:42:37.198Z,84.10
2019-05-10T19:45:07.541Z,83.80
2019-05-10T19:47:36.988Z,83.60
2019-05-10T19:50:07.288Z,83.50
2019-05-10T19:52:36.734Z,83.40
2019-05-10T19:55:06.556Z,83.20
2019-05-10T19:57:35.980Z,83.20
2019-05-10T20:00:08.710Z,83.30
2019-05-10T20:02:38.149Z,83.10
2019-05-10T20:05:07.862Z,83.20
2019-05-10T20:07:45.787Z,83.30
2019-05-10T20:10:08.541Z,83.40
2019-05-10T20:12:38.065Z,83.60
2019-05-10T20:15:07.870Z,83.70
2019-05-10T20:17:37.656Z,83.70
2019-05-10T20:20:06.780Z,83.70
2019-05-10T20:22:36.449Z,83.60
2019-05-10T20:25:07.450Z,83.50
2019-05-10T20:27:36.895Z,83.50
2019-05-10T20:30:08.008Z,83.10
2019-05-10T20:32:37.462Z,83.50
2019-05-10T20:35:07.958Z,83.30
2019-05-10T20:37:37.401Z,83.30
2019-05-10T20:40:08.449Z,83.40
2019-05-10T20:42:37.891Z,83.30
2019-05-10T20:45:08.686Z,83.00
2019-05-10T20:47:38.262Z,83.00
2019-05-10T20:50:08.366Z,82.80
2019-05-10T20:52:37.813Z,82.50
2019-05-10T20:55:07.622Z,82.90
2019-05-10T20:57:37.080Z,83.20
2019-05-10T21:00:07.050Z,82.90
2019-05-10T21:02:38.105Z,83.60
2019-05-10T21:05:08.118Z,83.60
2019-05-10T21:07:36.788Z,84.30
2019-05-10T21:10:07.689Z,85.00
2019-05-10T21:12:37.136Z,84.30
2019-05-10T21:15:07.948Z,85.00
2019-05-10T21:17:37.407Z,85.30
2019-05-10T21:20:07.899Z,83.40
2019-05-10T21:22:37.405Z,83.60
2019-05-10T21:25:07.816Z,84.50
2019-05-10T21:27:37.259Z,83.80
2019-05-10T21:30:08.575Z,84.80
2019-05-10T21:32:38.023Z,85.10
2019-05-10T21:35:07.563Z,84.60
2019-05-10T21:37:37.132Z,84.10
2019-05-10T21:40:09.794Z,84.40
2019-05-10T21:42:39.246Z,85.20
2019-05-10T21:45:09.206Z,85.40
2019-05-10T21:47:50.657Z,84.50
2019-05-10T21:50:09.366Z,85.80
2019-05-10T21:52:38.818Z,86.10
2019-05-10T21:55:08.414Z,86.50
2019-05-10T21:57:38.050Z,86.20
2019-05-10T22:00:08.350Z,86.90
2019-05-10T22:02:39.678Z,85.50
2019-05-10T22:05:09.418Z,85.00
2019-05-10T22:07:38.994Z,85.20
2019-05-10T22:10:08.820Z,84.80
2019-05-10T22:12:38.392Z,84.50
2019-05-10T22:15:08.317Z,84.60
2019-05-10T22:17:37.045Z,84.90
2019-05-10T22:20:08.103Z,84.50
2019-05-10T22:22:37.662Z,84.60
2019-05-10T22:25:07.237Z,85.20
2019-05-10T22:27:36.746Z,85.40
2019-05-10T22:30:11.984Z,85.60
2019-05-10T22:32:39.397Z,85.90
2019-05-10T22:35:09.249Z,85.80
2019-05-10T22:37:38.757Z,85.60
2019-05-10T22:40:08.404Z,86.00
2019-05-10T22:42:37.981Z,86.40
2019-05-10T22:45:07.701Z,86.00
2019-05-10T22:47:37.210Z,86.00
2019-05-10T22:50:08.497Z,86.40
2019-05-10T22:52:38.006Z,86.70
2019-05-10T22:55:09.040Z,86.60
2019-05-10T22:57:37.804Z,86.50
2019-05-10T23:00:09.394Z,86.70
2019-05-10T23:02:40.508Z,86.70
2019-05-10T23:05:11.116Z,87.00
2019-05-10T23:07:40.625Z,87.20
2019-05-10T23:10:16.972Z,87.70
2019-05-10T23:12:46.480Z,87.70
2019-05-10T23:15:16.194Z,88.00
2019-05-10T23:17:45.696Z,88.20
2019-05-10T23:20:15.328Z,88.80
2019-05-10T23:22:44.817Z,88.60
2019-05-10T23:25:14.305Z,89.90
2019-05-10T23:27:44.023Z,91.40
2019-05-10T23:30:13.568Z,92.80
2019-05-10T23:32:43.069Z,93.00
2019-05-10T23:35:12.614Z,93.10
2019-05-10T23:37:42.116Z,94.00
2019-05-10T23:40:11.949Z,94.30
2019-05-10T23:42:41.458Z,94.50
2019-05-10T23:45:11.012Z,94.90
2019-05-10T23:47:40.511Z,95.30
2019-05-10T23:50:10.424Z,95.70
2019-05-10T23:52:39.148Z,96.10
2019-05-10T23:55:11.769Z,96.60
2019-05-10T23:57:41.277Z,96.90
